Time;durP1;ratioP1;P1;durP2;ratioP2;P2;SDS_P1;SDS_P2;PMS_P1;PMS_P2;Temp;Humidity;BMP_temperature;BMP_pressure;BME280_temperature;BME280_humidity;BME280_pressure;Samples;Min_cycle;Max_cycle;Signal;HPM_P1;HPM_P2
2021/09/01 00:00:49;;;;;;;3.20;1.95;;;;;;;;;;5049416;28;20048;-77
2021/09/01 00:03:34;;;;;;;3.70;2.03;;;;;;;;;;5050564;28;20171;-77
2021/09/01 00:06:18;;;;;;;2.67;1.90;;;;;;;;;;5049315;28;20070;-77
2021/09/01 00:09:03;;;;;;;2.83;1.95;;;;;;;;;;5049360;28;20051;-77
2021/09/01 00:11:48;;;;;;;4.07;2.08;;;;;;;;;;5051160;28;20112;-77
2021/09/01 00:14:33;;;;;;;3.22;1.83;;;;;;;;;;5050796;28;20051;-77
2021/09/01 00:17:17;;;;;;;3.67;2.20;;;;;;;;;;5050343;28;20082;-77
2021/09/01 00:20:02;;;;;;;2.70;1.90;;;;;;;;;;5050131;28;20122;-77
2021/09/01 00:22:47;;;;;;;3.28;2.20;;;;;;;;;;5049734;28;20043;-75
2021/09/01 00:25:32;;;;;;;2.53;2.00;;;;;;;;;;5050040;28;20095;-78
2021/09/01 00:28:16;;;;;;;2.60;1.83;;;;;;;;;;5048850;28;20052;-76
2021/09/01 00:31:01;;;;;;;4.15;2.05;;;;;;;;;;5050004;28;20044;-77
2021/09/01 00:33:46;;;;;;;2.50;2.00;;;;;;;;;;5048843;28;20044;-77
2021/09/01 00:36:30;;;;;;;3.28;2.08;;;;;;;;;;5049974;28;20145;-78
2021/09/01 00:39:15;;;;;;;2.67;1.98;;;;;;;;;;5049664;28;20048;-77
2021/09/01 00:42:03;;;;;;;2.70;1.75;;;;;;;;;;5049717;28;20079;-77
2021/09/01 00:44:48;;;;;;;3.38;1.95;;;;;;;;;;5048819;28;20429;-77
2021/09/01 00:47:33;;;;;;;2.63;1.98;;;;;;;;;;5049583;28;20434;-76
2021/09/01 00:50:18;;;;;;;2.92;1.88;;;;;;;;;;5048529;28;20048;-77
2021/09/01 00:53:02;;;;;;;3.00;1.90;;;;;;;;;;5049330;28;20106;-76
2021/09/01 00:55:47;;;;;;;3.50;2.05;;;;;;;;;;5048355;28;20048;-78
2021/09/01 00:58:36;;;;;;;2.92;2.10;;;;;;;;;;5048180;28;20485;-77
2021/09/01 01:01:21;;;;;;;3.83;1.90;;;;;;;;;;5049138;28;20052;-76
2021/09/01 01:04:05;;;;;;;3.00;2.00;;;;;;;;;;5048755;28;20461;-76
2021/09/01 01:06:50;;;;;;;2.30;1.80;;;;;;;;;;5049258;28;20075;-77
2021/09/01 01:09:35;;;;;;;2.88;1.92;;;;;;;;;;5049008;28;20039;-77
2021/09/01 01:12:20;;;;;;;3.03;1.90;;;;;;;;;;5048886;28;20716;-77
2021/09/01 01:15:05;;;;;;;3.33;1.80;;;;;;;;;;5049167;28;20407;-77
2021/09/01 01:17:50;;;;;;;3.22;2.03;;;;;;;;;;5049003;28;20505;-77
2021/09/01 01:20:35;;;;;;;2.33;1.75;;;;;;;;;;5033787;28;20124;-77
2021/09/01 01:23:23;;;;;;;3.72;2.10;;;;;;;;;;5047671;28;20027;-77
2021/09/01 01:26:08;;;;;;;4.05;2.03;;;;;;;;;;5049031;28;20048;-77
2021/09/01 01:28:57;;;;;;;3.17;1.83;;;;;;;;;;5048699;28;20094;-77
2021/09/01 01:31:42;;;;;;;2.30;1.70;;;;;;;;;;5048766;28;20125;-77
2021/09/01 01:34:26;;;;;;;3.22;1.80;;;;;;;;;;5048715;28;20421;-77
2021/09/01 01:37:11;;;;;;;2.90;1.80;;;;;;;;;;5048638;28;20039;-77
2021/09/01 01:39:55;;;;;;;2.90;1.88;;;;;;;;;;5048776;28;20540;-77
2021/09/01 01:42:41;;;;;;;3.97;2.13;;;;;;;;;;5048539;28;20079;-77
2021/09/01 01:45:30;;;;;;;3.28;1.92;;;;;;;;;;5048436;28;20543;-78
2021/09/01 01:48:16;;;;;;;3.28;2.20;;;;;;;;;;5048566;28;20059;-77
2021/09/01 01:51:01;;;;;;;4.25;2.00;;;;;;;;;;5050834;28;20051;-77
2021/09/01 01:53:45;;;;;;;3.35;1.92;;;;;;;;;;5050879;28;20043;-78
2021/09/01 01:56:30;;;;;;;3.45;2.00;;;;;;;;;;5050666;28;20055;-77
2021/09/01 01:59:15;;;;;;;3.15;1.90;;;;;;;;;;5049694;28;20071;-77
2021/09/01 02:01:59;;;;;;;2.97;1.80;;;;;;;;;;5050671;28;20409;-78
2021/09/01 02:04:44;;;;;;;3.30;1.90;;;;;;;;;;5049516;28;20106;-78
2021/09/01 02:07:29;;;;;;;3.35;1.90;;;;;;;;;;5050464;28;20489;-77
2021/09/01 02:10:14;;;;;;;2.78;1.88;;;;;;;;;;5050662;28;20047;-78
2021/09/01 02:12:59;;;;;;;3.20;1.90;;;;;;;;;;5049363;28;20040;-77
2021/09/01 02:15:43;;;;;;;4.38;1.92;;;;;;;;;;5049360;28;20512;-78
2021/09/01 02:18:27;;;;;;;2.97;1.90;;;;;;;;;;5050456;28;20148;-77
2021/09/01 02:21:12;;;;;;;3.88;2.10;;;;;;;;;;5050868;28;20148;-77
2021/09/01 02:23:57;;;;;;;2.63;1.80;;;;;;;;;;5050242;28;20048;-77
2021/09/01 02:26:41;;;;;;;2.70;1.83;;;;;;;;;;5050160;28;20044;-77
2021/09/01 02:29:26;;;;;;;2.92;1.98;;;;;;;;;;5050338;28;20036;-77
2021/09/01 02:32:10;;;;;;;3.10;1.70;;;;;;;;;;5050173;28;20094;-77
2021/09/01 02:34:55;;;;;;;3.33;1.60;;;;;;;;;;5049852;28;20094;-77
2021/09/01 02:37:39;;;;;;;3.08;1.60;;;;;;;;;;5050014;28;20047;-77
2021/09/01 02:40:24;;;;;;;2.53;1.75;;;;;;;;;;5049865;28;20106;-77
2021/09/01 02:43:09;;;;;;;3.72;1.70;;;;;;;;;;5049854;28;20567;-77
2021/09/01 02:45:53;;;;;;;2.70;1.70;;;;;;;;;;5049875;28;20035;-78
2021/09/01 02:48:38;;;;;;;2.65;1.55;;;;;;;;;;5048782;28;20083;-78
2021/09/01 02:51:22;;;;;;;2.90;1.73;;;;;;;;;;5049740;28;20043;-78
2021/09/01 02:54:07;;;;;;;3.90;1.83;;;;;;;;;;5048547;28;20102;-77
2021/09/01 02:56:51;;;;;;;2.65;1.60;;;;;;;;;;5049693;28;20052;-77
2021/09/01 02:59:36;;;;;;;3.35;1.70;;;;;;;;;;5049694;28;20386;-77
2021/09/01 03:02:20;;;;;;;3.03;1.63;;;;;;;;;;5048499;28;20044;-77
2021/09/01 03:05:05;;;;;;;3.33;1.80;;;;;;;;;;5049479;28;20044;-77
2021/09/01 03:07:49;;;;;;;3.33;1.65;;;;;;;;;;5049604;28;20068;-77
2021/09/01 03:10:34;;;;;;;2.72;1.70;;;;;;;;;;5049376;28;20099;-78
2021/09/01 03:13:19;;;;;;;3.08;1.50;;;;;;;;;;5049530;28;20141;-77
2021/09/01 03:16:04;;;;;;;3.25;1.98;;;;;;;;;;5049493;28;20451;-77
2021/09/01 03:18:49;;;;;;;2.40;1.60;;;;;;;;;;5049460;28;20128;-77
2021/09/01 03:21:33;;;;;;;3.20;1.60;;;;;;;;;;5050012;28;20290;-77
2021/09/01 03:24:17;;;;;;;2.83;1.52;;;;;;;;;;5048214;28;20067;-77
2021/09/01 03:27:02;;;;;;;2.60;1.52;;;;;;;;;;5049032;28;20039;-78
2021/09/01 03:29:47;;;;;;;2.65;1.75;;;;;;;;;;5049333;28;20036;-77
2021/09/01 03:32:31;;;;;;;4.57;2.13;;;;;;;;;;5049199;28;20047;-78
2021/09/01 03:35:16;;;;;;;3.72;2.00;;;;;;;;;;5048756;28;20516;-78
2021/09/01 03:38:00;;;;;;;3.05;1.70;;;;;;;;;;5049216;28;20469;-77
2021/09/01 03:40:45;;;;;;;3.92;1.83;;;;;;;;;;5049120;28;20647;-78
2021/09/01 03:43:29;;;;;;;3.20;1.55;;;;;;;;;;5049143;28;20112;-77
2021/09/01 03:46:14;;;;;;;3.28;1.52;;;;;;;;;;5049112;28;20040;-77
2021/09/01 03:48:59;;;;;;;3.35;1.88;;;;;;;;;;5049138;28;20039;-77
2021/09/01 03:51:44;;;;;;;3.72;1.80;;;;;;;;;;5049007;28;20504;-77
2021/09/01 03:54:29;;;;;;;2.85;1.98;;;;;;;;;;5048907;28;20087;-77
2021/09/01 03:57:14;;;;;;;3.00;1.80;;;;;;;;;;5049039;28;20091;-77
2021/09/01 03:59:59;;;;;;;2.42;1.67;;;;;;;;;;5048942;28;20047;-78
2021/09/01 04:02:44;;;;;;;2.85;1.73;;;;;;;;;;5048879;28;20039;-77
2021/09/01 04:05:28;;;;;;;3.40;1.88;;;;;;;;;;5048968;28;20490;-78
2021/09/01 04:08:13;;;;;;;3.25;1.75;;;;;;;;;;5048946;28;20469;-77
2021/09/01 04:10:57;;;;;;;3.33;1.85;;;;;;;;;;5047889;28;20051;-78
2021/09/01 04:13:42;;;;;;;2.78;1.67;;;;;;;;;;5048868;28;20702;-77
2021/09/01 04:16:26;;;;;;;2.90;1.60;;;;;;;;;;5047893;28;20518;-77
2021/09/01 04:19:11;;;;;;;2.40;1.80;;;;;;;;;;5048745;28;20036;-77
2021/09/01 04:21:56;;;;;;;3.55;1.92;;;;;;;;;;5049311;28;20543;-77
2021/09/01 04:24:41;;;;;;;2.92;1.95;;;;;;;;;;5048704;28;20127;-77
2021/09/01 04:27:25;;;;;;;2.50;1.48;;;;;;;;;;5048754;28;20044;-77
2021/09/01 04:30:10;;;;;;;2.05;1.55;;;;;;;;;;5047624;28;20040;-77
2021/09/01 04:32:54;;;;;;;3.08;1.60;;;;;;;;;;5048758;28;20052;-77
2021/09/01 04:35:39;;;;;;;3.22;1.90;;;;;;;;;;5048763;28;20064;-77
2021/09/01 04:38:23;;;;;;;3.90;1.85;;;;;;;;;;5049228;28;20036;-78
2021/09/01 04:41:08;;;;;;;3.03;1.80;;;;;;;;;;5050982;28;20094;-77
2021/09/01 04:43:53;;;;;;;5.72;2.10;;;;;;;;;;5052144;28;20095;-78
2021/09/01 04:46:38;;;;;;;2.50;1.73;;;;;;;;;;5051001;28;20090;-77
2021/09/01 04:49:22;;;;;;;2.60;1.70;;;;;;;;;;5049523;28;20048;-78
2021/09/01 04:52:07;;;;;;;3.92;2.25;;;;;;;;;;5049408;28;20044;-77
2021/09/01 04:54:52;;;;;;;3.03;1.90;;;;;;;;;;5049219;28;20098;-77
2021/09/01 04:57:37;;;;;;;1.95;1.40;;;;;;;;;;5049289;28;20068;-77
2021/09/01 05:00:22;;;;;;;3.83;1.63;;;;;;;;;;5049243;28;20067;-77
2021/09/01 05:03:06;;;;;;;3.10;1.70;;;;;;;;;;5049527;28;20068;-77
2021/09/01 05:05:50;;;;;;;3.13;1.90;;;;;;;;;;5048130;28;20167;-78
2021/09/01 05:08:35;;;;;;;2.17;1.50;;;;;;;;;;5049333;28;20036;-77
2021/09/01 05:11:20;;;;;;;3.47;1.70;;;;;;;;;;5048837;28;20330;-77
2021/09/01 05:14:04;;;;;;;2.83;1.75;;;;;;;;;;5049010;28;20067;-77
2021/09/01 05:16:49;;;;;;;2.83;1.52;;;;;;;;;;5047806;28;20730;-77
2021/09/01 05:19:33;;;;;;;2.95;1.67;;;;;;;;;;5049168;28;20067;-77
2021/09/01 05:22:22;;;;;;;3.60;1.90;;;;;;;;;;5048943;28;20044;-77
2021/09/01 05:25:07;;;;;;;3.47;1.63;;;;;;;;;;5048807;28;20055;-77
2021/09/01 05:27:51;;;;;;;2.53;1.50;;;;;;;;;;5048428;28;20091;-77
2021/09/01 05:30:36;;;;;;;4.80;1.65;;;;;;;;;;5048781;28;20047;-77
2021/09/01 05:33:21;;;;;;;2.67;1.70;;;;;;;;;;5048303;28;20086;-76
2021/09/01 05:36:05;;;;;;;2.65;1.65;;;;;;;;;;5048636;28;20051;-77
2021/09/01 05:38:50;;;;;;;2.72;1.98;;;;;;;;;;5048269;28;20048;-77
2021/09/01 05:41:35;;;;;;;2.67;1.67;;;;;;;;;;5048330;28;20087;-78
2021/09/01 05:44:19;;;;;;;3.60;1.75;;;;;;;;;;5047399;28;20058;-77
2021/09/01 05:47:04;;;;;;;3.22;2.10;;;;;;;;;;5047382;28;20094;-77
2021/09/01 05:49:49;;;;;;;2.95;1.85;;;;;;;;;;5048096;28;20047;-76
2021/09/01 05:52:34;;;;;;;2.67;1.50;;;;;;;;;;5048870;28;20210;-77
2021/09/01 05:55:18;;;;;;;3.25;1.70;;;;;;;;;;5047200;28;20666;-78
2021/09/01 05:58:03;;;;;;;2.20;1.48;;;;;;;;;;5048068;28;20044;-78
2021/09/01 06:00:55;;;;;;;2.95;1.60;;;;;;;;;;5047250;28;20043;-78
2021/09/01 06:03:41;;;;;;;2.47;1.58;;;;;;;;;;5048446;28;20044;-78
2021/09/01 06:06:26;;;;;;;2.38;1.70;;;;;;;;;;5047144;28;20048;-77
2021/09/01 06:09:11;;;;;;;2.90;1.80;;;;;;;;;;5046955;28;20120;-77
2021/09/01 06:11:55;;;;;;;2.72;1.60;;;;;;;;;;5047963;28;20047;-77
2021/09/01 06:14:40;;;;;;;2.55;1.42;;;;;;;;;;5046903;28;20114;-78
2021/09/01 06:17:25;;;;;;;2.67;1.55;;;;;;;;;;5047875;28;20600;-77
2021/09/01 06:20:10;;;;;;;3.63;1.80;;;;;;;;;;5047709;28;20052;-77
2021/09/01 06:22:55;;;;;;;3.63;1.80;;;;;;;;;;5048241;28;20044;-77
2021/09/01 06:25:40;;;;;;;2.33;1.40;;;;;;;;;;5046833;28;20084;-77
2021/09/01 06:28:24;;;;;;;3.50;1.60;;;;;;;;;;5047684;28;20106;-77
2021/09/01 06:31:09;;;;;;;2.80;1.73;;;;;;;;;;5047533;28;20091;-77
2021/09/01 06:33:54;;;;;;;3.17;1.63;;;;;;;;;;5047581;28;20044;-77
2021/09/01 06:36:38;;;;;;;3.03;1.60;;;;;;;;;;5047597;28;20087;-77
2021/09/01 06:39:23;;;;;;;3.10;1.73;;;;;;;;;;5046337;28;20124;-77
2021/09/01 06:42:08;;;;;;;4.05;1.70;;;;;;;;;;5047748;28;20051;-78
2021/09/01 06:44:52;;;;;;;2.85;1.73;;;;;;;;;;5046240;28;20140;-77
2021/09/01 06:47:38;;;;;;;3.05;1.85;;;;;;;;;;5046331;28;20047;-77
2021/09/01 06:50:24;;;;;;;2.95;1.63;;;;;;;;;;5046032;28;20052;-77
2021/09/01 06:53:09;;;;;;;2.50;1.90;;;;;;;;;;5047445;28;20216;-77
2021/09/01 06:55:54;;;;;;;2.67;1.83;;;;;;;;;;5046984;28;20087;-77
2021/09/01 06:58:38;;;;;;;3.80;1.80;;;;;;;;;;5047092;28;20047;-77
2021/09/01 07:01:23;;;;;;;3.20;1.90;;;;;;;;;;5046974;28;20063;-78
2021/09/01 07:04:07;;;;;;;3.88;1.80;;;;;;;;;;5047021;28;20634;-77
2021/09/01 07:06:52;;;;;;;3.45;1.92;;;;;;;;;;5045922;28;20040;-78
2021/09/01 07:09:36;;;;;;;3.75;2.00;;;;;;;;;;5046321;28;20124;-77
2021/09/01 07:12:22;;;;;;;2.67;1.77;;;;;;;;;;5046859;28;20044;-78
2021/09/01 07:15:10;;;;;;;4.25;2.00;;;;;;;;;;5046679;28;20146;-77
2021/09/01 07:17:55;;;;;;;3.45;1.85;;;;;;;;;;5046814;28;20722;-77
2021/09/01 07:20:40;;;;;;;3.05;1.80;;;;;;;;;;5046869;28;20079;-77
2021/09/01 07:23:24;;;;;;;3.70;2.00;;;;;;;;;;5045550;28;20103;-77
2021/09/01 07:26:12;;;;;;;3.03;2.00;;;;;;;;;;5046892;28;20040;-78
2021/09/01 07:28:57;;;;;;;4.07;1.92;;;;;;;;;;5046800;28;20052;-77
2021/09/01 07:31:41;;;;;;;3.35;1.83;;;;;;;;;;5045986;28;20036;-77
2021/09/01 07:34:26;;;;;;;3.40;1.90;;;;;;;;;;5046739;28;20040;-77
2021/09/01 07:37:10;;;;;;;2.13;1.40;;;;;;;;;;5046794;28;20083;-77
2021/09/01 07:39:55;;;;;;;2.60;1.65;;;;;;;;;;5045652;28;20125;-77
2021/09/01 07:42:39;;;;;;;4.05;1.75;;;;;;;;;;5046490;28;20064;-77
2021/09/01 07:45:24;;;;;;;2.83;1.90;;;;;;;;;;5046966;28;20040;-78
2021/09/01 07:48:08;;;;;;;4.15;1.88;;;;;;;;;;5045580;28;20095;-78
2021/09/01 07:50:53;;;;;;;5.47;2.15;;;;;;;;;;5046347;28;20052;-77
2021/09/01 07:53:38;;;;;;;3.38;1.90;;;;;;;;;;5046452;28;20059;-77
2021/09/01 07:56:22;;;;;;;3.03;1.75;;;;;;;;;;5045500;28;20051;-77
2021/09/01 07:59:07;;;;;;;3.20;2.13;;;;;;;;;;5046575;28;20413;-77
2021/09/01 08:01:51;;;;;;;3.05;1.85;;;;;;;;;;5046453;28;20095;-77
2021/09/01 08:04:36;;;;;;;3.33;1.95;;;;;;;;;;5046624;28;20580;-77
2021/09/01 08:07:21;;;;;;;4.00;2.00;;;;;;;;;;5046409;28;20044;-78
2021/09/01 08:10:05;;;;;;;2.67;1.80;;;;;;;;;;5045227;28;20035;-77
2021/09/01 08:12:50;;;;;;;3.05;1.92;;;;;;;;;;5047377;28;20086;-78
2021/09/01 08:15:35;;;;;;;3.17;1.77;;;;;;;;;;5048954;28;20102;-77
2021/09/01 08:18:19;;;;;;;3.00;2.15;;;;;;;;;;5049227;28;20044;-78
2021/09/01 08:21:04;;;;;;;2.97;1.88;;;;;;;;;;5050100;28;20599;-77
2021/09/01 08:23:49;;;;;;;2.47;1.77;;;;;;;;;;5049965;28;20083;-77
2021/09/01 08:26:33;;;;;;;3.40;1.90;;;;;;;;;;5049740;28;20426;-77
2021/09/01 08:29:18;;;;;;;5.05;2.00;;;;;;;;;;5049933;28;20044;-78
2021/09/01 08:32:02;;;;;;;3.00;1.80;;;;;;;;;;5048652;28;20044;-77
2021/09/01 08:34:47;;;;;;;3.53;2.00;;;;;;;;;;5049752;28;20067;-78
2021/09/01 08:37:32;;;;;;;3.30;1.90;;;;;;;;;;5049692;28;20036;-77
2021/09/01 08:40:16;;;;;;;3.58;2.00;;;;;;;;;;5048929;28;20087;-78
2021/09/01 08:43:01;;;;;;;5.07;2.17;;;;;;;;;;5049522;28;20044;-77
2021/09/01 08:45:46;;;;;;;3.78;2.38;;;;;;;;;;5048554;28;20129;-76
2021/09/01 08:48:31;;;;;;;2.83;2.20;;;;;;;;;;5049532;28;20063;-78
2021/09/01 08:51:15;;;;;;;3.42;2.10;;;;;;;;;;5049879;28;20126;-77
2021/09/01 08:54:00;;;;;;;2.78;2.00;;;;;;;;;;5049347;28;20116;-77
2021/09/01 08:56:45;;;;;;;3.90;1.98;;;;;;;;;;5049504;28;20051;-77
2021/09/01 08:59:29;;;;;;;3.90;1.85;;;;;;;;;;5049569;28;20052;-77
2021/09/01 09:02:14;;;;;;;3.97;2.40;;;;;;;;;;5049222;28;20628;-77
2021/09/01 09:04:58;;;;;;;3.08;1.90;;;;;;;;;;5049390;28;20410;-77
2021/09/01 09:07:53;;;;;;;3.00;1.98;;;;;;;;;;5049346;28;20048;-78
2021/09/01 09:10:38;;;;;;;3.15;2.17;;;;;;;;;;5049240;28;20062;-77
2021/09/01 09:13:26;;;;;;;2.63;1.98;;;;;;;;;;5048944;28;20048;-77
2021/09/01 09:16:12;;;;;;;3.40;2.10;;;;;;;;;;5049071;28;20072;-77
2021/09/01 09:18:57;;;;;;;3.35;1.80;;;;;;;;;;5049131;28;20082;-77
2021/09/01 09:21:41;;;;;;;2.75;2.00;;;;;;;;;;5048238;28;20059;-77
2021/09/01 09:24:28;;;;;;;2.40;1.63;;;;;;;;;;5048337;28;20087;-77
2021/09/01 09:27:12;;;;;;;2.60;1.80;;;;;;;;;;5049051;28;20067;-78
2021/09/01 09:29:57;;;;;;;3.92;2.05;;;;;;;;;;5047760;28;20043;-77
2021/09/01 09:32:52;;;;;;;3.10;1.88;;;;;;;;;;5048617;28;20040;-77
2021/09/01 09:35:46;;;;;;;3.20;2.17;;;;;;;;;;5047105;28;20059;-77
2021/09/01 09:38:33;;;;;;;4.22;2.03;;;;;;;;;;5048747;28;20047;-77
2021/09/01 09:41:21;;;;;;;3.03;2.08;;;;;;;;;;5047739;28;20086;-77
2021/09/01 09:44:06;;;;;;;2.55;1.90;;;;;;;;;;5048455;28;20122;-77
2021/09/01 09:46:51;;;;;;;3.10;1.98;;;;;;;;;;5048464;28;20044;-77
2021/09/01 09:49:35;;;;;;;3.22;2.00;;;;;;;;;;5048577;28;20039;-78
2021/09/01 09:52:20;;;;;;;4.40;2.17;;;;;;;;;;5048446;28;20449;-78
2021/09/01 09:55:14;;;;;;;3.50;2.20;;;;;;;;;;5047338;28;20055;-78
2021/09/01 09:58:02;;;;;;;3.33;2.10;;;;;;;;;;5048530;28;20086;-78
2021/09/01 10:00:47;;;;;;;3.10;2.00;;;;;;;;;;5047076;28;20044;-77
2021/09/01 10:03:32;;;;;;;3.28;1.85;;;;;;;;;;5048430;28;20047;-77
2021/09/01 10:06:18;;;;;;;3.17;2.15;;;;;;;;;;5046965;28;20468;-77
2021/09/01 10:09:03;;;;;;;4.15;2.25;;;;;;;;;;5048179;28;20114;-78
2021/09/01 10:11:50;;;;;;;2.75;1.88;;;;;;;;;;5048289;28;20090;-78
2021/09/01 10:14:34;;;;;;;4.05;2.15;;;;;;;;;;5047949;28;20075;-77
2021/09/01 10:17:19;;;;;;;3.25;2.20;;;;;;;;;;5048040;28;20080;-78
2021/09/01 10:20:03;;;;;;;2.67;1.90;;;;;;;;;;5046992;28;20165;-78
2021/09/01 10:22:58;;;;;;;3.70;2.20;;;;;;;;;;5046556;28;20048;-78
2021/09/01 10:25:52;;;;;;;3.75;2.33;;;;;;;;;;5046667;28;20044;-78
2021/09/01 10:28:38;;;;;;;2.65;2.10;;;;;;;;;;5046799;28;20052;-78
2021/09/01 10:31:23;;;;;;;3.10;2.10;;;;;;;;;;5047644;28;20186;-78
2021/09/01 10:34:21;;;;;;;3.60;2.13;;;;;;;;;;5047628;28;20091;-78
2021/09/01 10:37:06;;;;;;;3.20;1.90;;;;;;;;;;5045739;28;20106;-78
2021/09/01 10:39:50;;;;;;;3.13;2.30;;;;;;;;;;5047468;28;20083;-78
2021/09/01 10:42:42;;;;;;;3.60;2.08;;;;;;;;;;5048030;28;20043;-78
2021/09/01 10:45:36;;;;;;;3.60;2.10;;;;;;;;;;5032904;28;20102;-77
2021/09/01 10:48:21;;;;;;;3.42;2.05;;;;;;;;;;5047748;28;20112;-78
2021/09/01 10:51:09;;;;;;;2.75;1.73;;;;;;;;;;5046581;28;20118;-78
2021/09/01 10:53:54;;;;;;;3.17;2.03;;;;;;;;;;5032656;28;20043;-78
2021/09/01 10:56:50;;;;;;;2.88;2.08;;;;;;;;;;5032399;28;20052;-77
2021/09/01 10:59:38;;;;;;;3.10;2.17;;;;;;;;;;5032295;28;20071;-78
2021/09/01 11:02:22;;;;;;;3.08;2.05;;;;;;;;;;5046190;28;20058;-78
2021/09/01 11:05:08;;;;;;;3.50;2.20;;;;;;;;;;5032192;28;20059;-78
2021/09/01 11:07:56;;;;;;;3.33;2.20;;;;;;;;;;5032447;28;20043;-77
2021/09/01 11:10:53;;;;;;;2.70;1.98;;;;;;;;;;5046117;28;20040;-77
2021/09/01 11:13:44;;;;;;;4.55;2.40;;;;;;;;;;5046246;28;20137;-78
2021/09/01 11:16:28;;;;;;;3.08;2.10;;;;;;;;;;5046078;28;20128;-77
2021/09/01 11:19:13;;;;;;;3.88;2.40;;;;;;;;;;5030698;28;20155;-76
2021/09/01 11:22:00;;;;;;;5.13;2.35;;;;;;;;;;5020682;28;20055;-75
2021/09/01 11:24:46;;;;;;;7.85;3.20;;;;;;;;;;5020975;28;20763;-77
2021/09/01 11:27:32;;;;;;;5.13;3.40;;;;;;;;;;5041402;28;20039;-77
2021/09/01 11:30:16;;;;;;;5.50;3.15;;;;;;;;;;5045354;28;20048;-77
2021/09/01 11:33:01;;;;;;;4.40;2.88;;;;;;;;;;5044924;28;20112;-77
2021/09/01 11:35:46;;;;;;;7.10;3.70;;;;;;;;;;5043906;28;20525;-77
2021/09/01 11:38:30;;;;;;;4.55;3.00;;;;;;;;;;5023570;28;20113;-75
2021/09/01 11:41:15;;;;;;;5.20;2.95;;;;;;;;;;5045550;28;20067;-75
2021/09/01 11:44:00;;;;;;;7.10;3.08;;;;;;;;;;5026609;28;20048;-76
2021/09/01 11:46:44;;;;;;;6.20;3.20;;;;;;;;;;5047608;28;20072;-76
2021/09/01 11:49:29;;;;;;;6.60;3.53;;;;;;;;;;5036505;28;20421;-77
2021/09/01 11:52:13;;;;;;;6.65;3.33;;;;;;;;;;5036485;28;20071;-75
2021/09/01 11:54:58;;;;;;;7.00;3.55;;;;;;;;;;5035882;28;20043;-76
2021/09/01 11:57:42;;;;;;;7.85;3.65;;;;;;;;;;5029060;28;20527;-78
2021/09/01 12:00:27;;;;;;;7.00;4.20;;;;;;;;;;5049794;28;20079;-78
2021/09/01 12:03:11;;;;;;;8.68;4.07;;;;;;;;;;5048510;28;20149;-74
2021/09/01 12:06:06;;;;;;;6.35;3.70;;;;;;;;;;5022195;28;20055;-75
2021/09/01 12:08:52;;;;;;;8.75;4.07;;;;;;;;;;5042892;28;20500;-75
2021/09/01 12:11:37;;;;;;;8.18;3.70;;;;;;;;;;5049887;28;20047;-74
2021/09/01 12:14:23;;;;;;;5.95;3.47;;;;;;;;;;5029109;28;20824;-75
2021/09/01 12:17:19;;;;;;;5.70;3.40;;;;;;;;;;5045954;28;20047;-74
2021/09/01 12:20:04;;;;;;;5.97;3.45;;;;;;;;;;5049680;28;20048;-75
2021/09/01 12:22:48;;;;;;;7.85;3.75;;;;;;;;;;5048428;28;20116;-75
2021/09/01 12:25:33;;;;;;;5.78;3.72;;;;;;;;;;5034318;28;20067;-75
2021/09/01 12:28:17;;;;;;;5.82;3.50;;;;;;;;;;5048296;28;20571;-75
2021/09/01 12:31:02;;;;;;;5.55;3.60;;;;;;;;;;5045633;28;20114;-74
2021/09/01 12:33:47;;;;;;;10.55;3.80;;;;;;;;;;5024391;28;20043;-73
2021/09/01 12:36:32;;;;;;;7.07;3.78;;;;;;;;;;5029339;28;20067;-74
2021/09/01 12:39:17;;;;;;;8.00;3.78;;;;;;;;;;5046654;28;20039;-74
2021/09/01 12:42:02;;;;;;;7.18;3.80;;;;;;;;;;5047256;28;20111;-74
2021/09/01 12:44:50;;;;;;;5.70;3.65;;;;;;;;;;5031438;28;20039;-74
2021/09/01 12:47:35;;;;;;;6.53;3.78;;;;;;;;;;5032621;28;20052;-75
2021/09/01 12:50:20;;;;;;;6.10;3.55;;;;;;;;;;5044606;28;20075;-75
2021/09/01 12:53:05;;;;;;;4.80;3.60;;;;;;;;;;5047260;28;20086;-74
2021/09/01 12:55:53;;;;;;;5.28;3.53;;;;;;;;;;5046777;28;20540;-74
2021/09/01 12:58:37;;;;;;;5.68;3.42;;;;;;;;;;5030853;28;20040;-74
2021/09/01 13:01:22;;;;;;;5.60;3.65;;;;;;;;;;5047111;28;20040;-74
2021/09/01 13:04:06;;;;;;;5.95;3.60;;;;;;;;;;5046379;28;20091;-74
2021/09/01 13:06:51;;;;;;;5.75;3.67;;;;;;;;;;5046087;28;20098;-74
2021/09/01 13:09:36;;;;;;;5.45;3.53;;;;;;;;;;5024720;28;20036;-75
2021/09/01 13:12:21;;;;;;;6.80;3.58;;;;;;;;;;5044702;28;20118;-75
2021/09/01 13:15:06;;;;;;;4.90;3.33;;;;;;;;;;5045817;28;20048;-75
2021/09/01 13:17:50;;;;;;;5.70;3.50;;;;;;;;;;5045212;28;20493;-75
2021/09/01 13:20:37;;;;;;;6.85;3.63;;;;;;;;;;5032706;28;20044;-75
2021/09/01 13:23:22;;;;;;;5.22;3.30;;;;;;;;;;5047650;28;20125;-75
2021/09/01 13:26:07;;;;;;;5.65;3.70;;;;;;;;;;5044878;28;20729;-74
2021/09/01 13:28:51;;;;;;;6.47;3.78;;;;;;;;;;5031826;28;20076;-75
2021/09/01 13:31:36;;;;;;;5.97;3.72;;;;;;;;;;5047398;28;20497;-74
2021/09/01 13:34:21;;;;;;;7.05;3.60;;;;;;;;;;5043762;28;20040;-74
2021/09/01 13:37:06;;;;;;;4.80;3.17;;;;;;;;;;5046327;28;20088;-74
2021/09/01 13:39:50;;;;;;;6.05;3.42;;;;;;;;;;5045106;28;20075;-75
2021/09/01 13:42:35;;;;;;;5.68;3.45;;;;;;;;;;5032238;28;20083;-74
2021/09/01 13:45:20;;;;;;;5.65;3.50;;;;;;;;;;5027353;28;20397;-75
2021/09/01 13:48:05;;;;;;;6.97;3.60;;;;;;;;;;5045514;28;20575;-75
2021/09/01 13:50:50;;;;;;;4.85;3.30;;;;;;;;;;5046260;28;20040;-75
2021/09/01 13:53:36;;;;;;;4.70;3.30;;;;;;;;;;5032079;28;20087;-75
2021/09/01 13:56:20;;;;;;;4.60;3.45;;;;;;;;;;5043204;28;20120;-76
2021/09/01 13:59:06;;;;;;;4.50;3.30;;;;;;;;;;5046228;28;20555;-76
2021/09/01 14:01:50;;;;;;;5.97;3.42;;;;;;;;;;5046042;28;20517;-75
2021/09/01 14:04:35;;;;;;;5.68;3.25;;;;;;;;;;5029366;28;20039;-76
2021/09/01 14:07:20;;;;;;;5.00;3.20;;;;;;;;;;5024975;28;20070;-73
2021/09/01 14:10:05;;;;;;;5.43;3.47;;;;;;;;;;5045761;28;20461;-75
2021/09/01 14:12:49;;;;;;;4.82;3.35;;;;;;;;;;5044784;28;20662;-75
2021/09/01 14:15:34;;;;;;;7.30;3.58;;;;;;;;;;5043734;28;20043;-74
2021/09/01 14:18:19;;;;;;;10.88;3.30;;;;;;;;;;5026688;28;20035;-74
2021/09/01 14:21:03;;;;;;;7.15;3.00;;;;;;;;;;5045559;28;20109;-74
2021/09/01 14:23:48;;;;;;;6.43;3.17;;;;;;;;;;5045489;28;20114;-73
2021/09/01 14:26:32;;;;;;;5.93;3.70;;;;;;;;;;5042284;28;20555;-73
2021/09/01 14:29:17;;;;;;;3.72;2.90;;;;;;;;;;5045681;28;20075;-73
2021/09/01 14:32:01;;;;;;;6.13;3.28;;;;;;;;;;5045872;28;20538;-75
2021/09/01 14:34:46;;;;;;;5.00;3.20;;;;;;;;;;5045971;28;20520;-76
2021/09/01 14:37:30;;;;;;;6.75;3.10;;;;;;;;;;5031907;28;20079;-76
2021/09/01 14:40:15;;;;;;;7.18;3.30;;;;;;;;;;5045434;28;20079;-74
2021/09/01 14:43:00;;;;;;;6.00;3.10;;;;;;;;;;5045902;28;20036;-75
2021/09/01 14:45:44;;;;;;;6.65;3.78;;;;;;;;;;5032120;28;20048;-77
2021/09/01 14:48:29;;;;;;;7.95;3.90;;;;;;;;;;5045793;28;20036;-76
2021/09/01 14:51:14;;;;;;;6.05;3.10;;;;;;;;;;5045520;28;20116;-77
2021/09/01 14:53:59;;;;;;;6.90;3.20;;;;;;;;;;5045459;28;20071;-74
2021/09/01 14:56:43;;;;;;;9.77;3.20;;;;;;;;;;5042844;28;20060;-77
2021/09/01 14:59:28;;;;;;;5.50;2.90;;;;;;;;;;5044488;28;20058;-77
2021/09/01 15:02:13;;;;;;;5.38;2.90;;;;;;;;;;5027076;28;20739;-77
2021/09/01 15:04:57;;;;;;;5.82;3.22;;;;;;;;;;5031499;28;20203;-77
2021/09/01 15:07:42;;;;;;;5.25;3.03;;;;;;;;;;5031597;28;20430;-76
2021/09/01 15:10:27;;;;;;;7.45;3.15;;;;;;;;;;5045971;28;20110;-76
2021/09/01 15:13:11;;;;;;;4.15;2.67;;;;;;;;;;5027135;28;20059;-75
2021/09/01 15:15:56;;;;;;;6.03;3.30;;;;;;;;;;5041489;28;20059;-76
2021/09/01 15:18:40;;;;;;;4.75;3.10;;;;;;;;;;5046620;28;20441;-74
2021/09/01 15:21:25;;;;;;;5.00;3.17;;;;;;;;;;5043370;28;20528;-75
2021/09/01 15:24:10;;;;;;;3.92;2.70;;;;;;;;;;5046069;28;20044;-75
2021/09/01 15:26:58;;;;;;;5.97;3.25;;;;;;;;;;5043623;28;20048;-74
2021/09/01 15:29:45;;;;;;;5.95;2.65;;;;;;;;;;5042162;28;20040;-81
2021/09/01 15:32:30;;;;;;;5.40;2.88;;;;;;;;;;5032734;28;20094;-80
2021/09/01 15:35:14;;;;;;;6.03;3.05;;;;;;;;;;5046548;28;20078;-78
2021/09/01 15:37:59;;;;;;;4.63;2.70;;;;;;;;;;5044748;28;20048;-77
2021/09/01 15:40:44;;;;;;;4.85;3.03;;;;;;;;;;5032262;28;20129;-77
2021/09/01 15:43:31;;;;;;;6.82;2.88;;;;;;;;;;5031760;28;20555;-78
2021/09/01 15:46:16;;;;;;;5.20;2.70;;;;;;;;;;5045473;28;20044;-78
2021/09/01 15:49:04;;;;;;;5.50;3.28;;;;;;;;;;5045425;28;20039;-77
2021/09/01 15:51:49;;;;;;;5.93;3.00;;;;;;;;;;5045095;28;20060;-78
2021/09/01 15:54:34;;;;;;;6.20;3.20;;;;;;;;;;5042187;28;20039;-77
2021/09/01 15:57:18;;;;;;;5.40;3.00;;;;;;;;;;5044131;28;20052;-79
2021/09/01 16:00:03;;;;;;;5.18;3.10;;;;;;;;;;5022711;28;20698;-78
2021/09/01 16:02:48;;;;;;;4.20;2.90;;;;;;;;;;5030231;28;20564;-78
2021/09/01 16:05:32;;;;;;;5.78;3.00;;;;;;;;;;5044355;28;20051;-79
2021/09/01 16:08:18;;;;;;;5.10;2.72;;;;;;;;;;5038783;28;20044;-77
2021/09/01 16:11:02;;;;;;;5.72;3.00;;;;;;;;;;5042614;28;20110;-78
2021/09/01 16:13:47;;;;;;;4.32;2.88;;;;;;;;;;5043974;28;20539;-79
2021/09/01 16:16:31;;;;;;;3.97;2.75;;;;;;;;;;5043848;28;20351;-78
2021/09/01 16:19:19;;;;;;;4.47;2.90;;;;;;;;;;5044430;28;20048;-79
2021/09/01 16:22:04;;;;;;;5.95;2.78;;;;;;;;;;5044282;28;20040;-79
2021/09/01 16:24:49;;;;;;;7.05;3.13;;;;;;;;;;5044694;28;20044;-78
2021/09/01 16:27:34;;;;;;;3.28;2.53;;;;;;;;;;5044416;28;20044;-81
2021/09/01 16:30:21;;;;;;;3.80;2.90;;;;;;;;;;5029587;28;20095;-80